Terminal Aerodrome Forecast
Issued by NWS

Home | Current Version | Previous Version | Text Only | Print | Product List | Glossary On
Versions: 1 2 3 4 5 6 7 8 9 10 11 12
000
FTUS46 KMFR 031742
TAFLMT
TAF
KLMT 031742Z 0318/0418 00000KT P6SM OVC100
     FM032100 18007KT P6SM OVC100
     FM040000 VRB10G18KT P6SM VCTS BKN050CB OVC100
     FM040400 VRB03KT P6SM VCSH BKN050 OVC100=

USA.gov is the U.S. government's official web portal to all federal, state and local government web resources and services.